sensor_id;sensor_type;location;lat;lon;timestamp;temperature;humidity
78611;SHT30;67932;50.474;4.436;2023-05-14T00:00:16;12.87;86.29
78611;SHT30;67932;50.474;4.436;2023-05-14T00:02:42;12.79;86.95
78611;SHT30;67932;50.474;4.436;2023-05-14T00:05:08;12.83;86.56
78611;SHT30;67932;50.474;4.436;2023-05-14T00:07:35;12.73;87.14
78611;SHT30;67932;50.474;4.436;2023-05-14T00:10:01;12.66;87.14
78611;SHT30;67932;50.474;4.436;2023-05-14T00:12:27;12.66;87.26
78611;SHT30;67932;50.474;4.436;2023-05-14T00:14:55;12.64;87.59
78611;SHT30;67932;50.474;4.436;2023-05-14T00:17:21;12.53;87.89
78611;SHT30;67932;50.474;4.436;2023-05-14T00:19:48;12.60;87.93
78611;SHT30;67932;50.474;4.436;2023-05-14T00:22:14;12.62;87.42
78611;SHT30;67932;50.474;4.436;2023-05-14T00:24:41;12.72;87.27
78611;SHT30;67932;50.474;4.436;2023-05-14T00:27:08;12.73;87.08
78611;SHT30;67932;50.474;4.436;2023-05-14T00:29:34;12.72;86.87
78611;SHT30;67932;50.474;4.436;2023-05-14T00:32:01;12.60;87.43
78611;SHT30;67932;50.474;4.436;2023-05-14T00:34:28;12.52;87.93
78611;SHT30;67932;50.474;4.436;2023-05-14T00:36:54;12.49;87.81
78611;SHT30;67932;50.474;4.436;2023-05-14T00:39:21;12.59;87.85
78611;SHT30;67932;50.474;4.436;2023-05-14T00:41:48;12.69;87.35
78611;SHT30;67932;50.474;4.436;2023-05-14T00:44:14;12.77;86.92
78611;SHT30;67932;50.474;4.436;2023-05-14T00:46:40;12.70;87.16
78611;SHT30;67932;50.474;4.436;2023-05-14T00:49:08;12.66;87.40
78611;SHT30;67932;50.474;4.436;2023-05-14T00:51:34;12.77;87.07
78611;SHT30;67932;50.474;4.436;2023-05-14T00:54:01;12.84;86.70
78611;SHT30;67932;50.474;4.436;2023-05-14T00:56:27;12.73;87.06
78611;SHT30;67932;50.474;4.436;2023-05-14T00:58:54;12.66;87.28
78611;SHT30;67932;50.474;4.436;2023-05-14T01:01:20;12.70;87.11
78611;SHT30;67932;50.474;4.436;2023-05-14T01:03:46;12.52;87.98
78611;SHT30;67932;50.474;4.436;2023-05-14T01:10:27;12.43;88.48
78611;SHT30;67932;50.474;4.436;2023-05-14T01:12:51;12.46;88.08
78611;SHT30;67932;50.474;4.436;2023-05-14T01:15:30;12.26;88.70
78611;SHT30;67932;50.474;4.436;2023-05-14T01:18:03;12.48;88.41
78611;SHT30;67932;50.474;4.436;2023-05-14T01:20:29;12.33;88.57
78611;SHT30;67932;50.474;4.436;2023-05-14T01:22:55;12.22;88.86
78611;SHT30;67932;50.474;4.436;2023-05-14T01:25:22;12.38;88.79
78611;SHT30;67932;50.474;4.436;2023-05-14T01:28:08;12.43;88.29
78611;SHT30;67932;50.474;4.436;2023-05-14T01:33:21;12.35;88.40
78611;SHT30;67932;50.474;4.436;2023-05-14T01:35:50;12.14;89.42
78611;SHT30;67932;50.474;4.436;2023-05-14T01:38:20;12.24;89.21
78611;SHT30;67932;50.474;4.436;2023-05-14T01:40:47;12.21;89.32
78611;SHT30;67932;50.474;4.436;2023-05-14T01:43:15;12.29;89.06
78611;SHT30;67932;50.474;4.436;2023-05-14T01:45:42;12.28;89.13
78611;SHT30;67932;50.474;4.436;2023-05-14T01:48:08;12.24;89.34
78611;SHT30;67932;50.474;4.436;2023-05-14T01:50:34;12.33;88.71
78611;SHT30;67932;50.474;4.436;2023-05-14T01:53:01;12.22;89.26
78611;SHT30;67932;50.474;4.436;2023-05-14T01:55:27;12.15;89.61
78611;SHT30;67932;50.474;4.436;2023-05-14T01:57:53;12.22;89.11
78611;SHT30;67932;50.474;4.436;2023-05-14T02:00:21;12.31;88.78
78611;SHT30;67932;50.474;4.436;2023-05-14T02:02:48;12.35;88.59
78611;SHT30;67932;50.474;4.436;2023-05-14T02:05:14;12.31;88.87
78611;SHT30;67932;50.474;4.436;2023-05-14T02:07:40;12.29;88.52
78611;SHT30;67932;50.474;4.436;2023-05-14T02:10:07;12.33;88.74
78611;SHT30;67932;50.474;4.436;2023-05-14T02:12:33;12.39;88.35
78611;SHT30;67932;50.474;4.436;2023-05-14T02:15:00;12.36;88.17
78611;SHT30;67932;50.474;4.436;2023-05-14T02:17:26;12.36;88.16
78611;SHT30;67932;50.474;4.436;2023-05-14T02:19:52;12.26;88.23
78611;SHT30;67932;50.474;4.436;2023-05-14T02:22:19;12.09;89.35
78611;SHT30;67932;50.474;4.436;2023-05-14T02:24:45;12.17;89.14
78611;SHT30;67932;50.474;4.436;2023-05-14T02:27:11;12.33;88.57
78611;SHT30;67932;50.474;4.436;2023-05-14T02:29:38;12.25;88.58
78611;SHT30;67932;50.474;4.436;2023-05-14T02:32:04;12.28;88.50
78611;SHT30;67932;50.474;4.436;2023-05-14T02:34:31;12.31;88.47
78611;SHT30;67932;50.474;4.436;2023-05-14T02:36:59;12.25;88.69
78611;SHT30;67932;50.474;4.436;2023-05-14T02:39:26;12.28;88.76
78611;SHT30;67932;50.474;4.436;2023-05-14T02:41:52;12.15;89.01
78611;SHT30;67932;50.474;4.436;2023-05-14T02:44:18;12.19;89.22
78611;SHT30;67932;50.474;4.436;2023-05-14T02:46:44;12.12;88.96
78611;SHT30;67932;50.474;4.436;2023-05-14T02:49:11;12.08;89.17
78611;SHT30;67932;50.474;4.436;2023-05-14T02:51:37;12.18;89.23
78611;SHT30;67932;50.474;4.436;2023-05-14T02:54:03;12.14;89.22
78611;SHT30;67932;50.474;4.436;2023-05-14T02:56:29;12.02;89.79
78611;SHT30;67932;50.474;4.436;2023-05-14T02:58:56;12.06;89.63
78611;SHT30;67932;50.474;4.436;2023-05-14T03:01:22;12.11;89.34
78611;SHT30;67932;50.474;4.436;2023-05-14T03:03:48;12.05;89.76
78611;SHT30;67932;50.474;4.436;2023-05-14T03:06:14;12.15;89.13
78611;SHT30;67932;50.474;4.436;2023-05-14T03:08:41;11.99;89.41
78611;SHT30;67932;50.474;4.436;2023-05-14T03:11:07;12.12;89.46
78611;SHT30;67932;50.474;4.436;2023-05-14T03:13:33;12.22;88.55
78611;SHT30;67932;50.474;4.436;2023-05-14T03:15:59;12.15;88.68
78611;SHT30;67932;50.474;4.436;2023-05-14T03:18:26;12.17;88.64
78611;SHT30;67932;50.474;4.436;2023-05-14T03:20:56;11.97;89.58
78611;SHT30;67932;50.474;4.436;2023-05-14T03:23:22;12.01;89.53
78611;SHT30;67932;50.474;4.436;2023-05-14T03:25:48;12.06;89.30
78611;SHT30;67932;50.474;4.436;2023-05-14T03:28:15;12.05;89.41
78611;SHT30;67932;50.474;4.436;2023-05-14T03:30:42;11.97;89.51
78611;SHT30;67932;50.474;4.436;2023-05-14T03:33:08;11.99;89.12
78611;SHT30;67932;50.474;4.436;2023-05-14T03:35:34;11.99;89.12
78611;SHT30;67932;50.474;4.436;2023-05-14T03:38:00;11.91;89.08
78611;SHT30;67932;50.474;4.436;2023-05-14T03:40:27;11.99;88.84
78611;SHT30;67932;50.474;4.436;2023-05-14T03:42:53;11.97;88.63
78611;SHT30;67932;50.474;4.436;2023-05-14T03:45:20;11.89;88.98
78611;SHT30;67932;50.474;4.436;2023-05-14T03:47:47;12.01;88.60
78611;SHT30;67932;50.474;4.436;2023-05-14T03:50:13;11.85;89.06
78611;SHT30;67932;50.474;4.436;2023-05-14T03:52:39;11.92;88.92
78611;SHT30;67932;50.474;4.436;2023-05-14T03:55:06;11.97;88.49
78611;SHT30;67932;50.474;4.436;2023-05-14T03:57:32;11.89;88.65
78611;SHT30;67932;50.474;4.436;2023-05-14T03:59:58;11.95;88.56
78611;SHT30;67932;50.474;4.436;2023-05-14T04:02:25;11.92;88.68
78611;SHT30;67932;50.474;4.436;2023-05-14T04:04:51;11.95;88.63
78611;SHT30;67932;50.474;4.436;2023-05-14T04:07:17;11.91;88.79
78611;SHT30;67932;50.474;4.436;2023-05-14T04:09:43;11.87;88.61
78611;SHT30;67932;50.474;4.436;2023-05-14T04:12:10;12.01;88.17
78611;SHT30;67932;50.474;4.436;2023-05-14T04:14:36;11.98;88.35
78611;SHT30;67932;50.474;4.436;2023-05-14T04:17:02;11.85;88.87
78611;SHT30;67932;50.474;4.436;2023-05-14T04:19:29;11.89;88.50
78611;SHT30;67932;50.474;4.436;2023-05-14T04:21:55;11.79;88.72
78611;SHT30;67932;50.474;4.436;2023-05-14T04:24:21;11.78;89.06
78611;SHT30;67932;50.474;4.436;2023-05-14T04:26:47;11.87;88.89
78611;SHT30;67932;50.474;4.436;2023-05-14T04:29:14;11.78;88.81
78611;SHT30;67932;50.474;4.436;2023-05-14T04:31:40;11.77;89.15
78611;SHT30;67932;50.474;4.436;2023-05-14T04:34:08;11.77;89.24
78611;SHT30;67932;50.474;4.436;2023-05-14T04:36:34;11.81;89.07
78611;SHT30;67932;50.474;4.436;2023-05-14T04:39:00;11.82;88.83
78611;SHT30;67932;50.474;4.436;2023-05-14T04:41:26;11.82;88.91
78611;SHT30;67932;50.474;4.436;2023-05-14T04:43:55;11.85;88.66
78611;SHT30;67932;50.474;4.436;2023-05-14T04:46:21;11.92;88.33
78611;SHT30;67932;50.474;4.436;2023-05-14T04:48:49;11.92;88.24
78611;SHT30;67932;50.474;4.436;2023-05-14T04:51:16;11.97;87.61
78611;SHT30;67932;50.474;4.436;2023-05-14T04:53:42;12.02;87.61
78611;SHT30;67932;50.474;4.436;2023-05-14T04:56:09;11.94;87.80
78611;SHT30;67932;50.474;4.436;2023-05-14T04:58:35;11.92;87.90
78611;SHT30;67932;50.474;4.436;2023-05-14T05:01:03;12.06;87.35
78611;SHT30;67932;50.474;4.436;2023-05-14T05:03:30;11.98;87.66
78611;SHT30;67932;50.474;4.436;2023-05-14T05:05:56;12.08;87.38
78611;SHT30;67932;50.474;4.436;2023-05-14T05:08:22;12.08;87.42
78611;SHT30;67932;50.474;4.436;2023-05-14T05:10:49;12.15;87.24
78611;SHT30;67932;50.474;4.436;2023-05-14T05:13:15;12.11;86.77
78611;SHT30;67932;50.474;4.436;2023-05-14T05:15:42;12.02;87.28
78611;SHT30;67932;50.474;4.436;2023-05-14T05:18:08;11.99;87.55
78611;SHT30;67932;50.474;4.436;2023-05-14T05:20:34;12.01;87.53
78611;SHT30;67932;50.474;4.436;2023-05-14T05:23:01;11.97;87.75
78611;SHT30;67932;50.474;4.436;2023-05-14T05:25:27;11.79;88.44
78611;SHT30;67932;50.474;4.436;2023-05-14T05:27:53;11.89;88.03
78611;SHT30;67932;50.474;4.436;2023-05-14T05:30:20;11.77;88.18
78611;SHT30;67932;50.474;4.436;2023-05-14T05:32:46;11.95;87.99
78611;SHT30;67932;50.474;4.436;2023-05-14T05:35:12;12.04;87.60
78611;SHT30;67932;50.474;4.436;2023-05-14T05:37:39;12.01;87.45
78611;SHT30;67932;50.474;4.436;2023-05-14T05:40:06;11.79;87.82
78611;SHT30;67932;50.474;4.436;2023-05-14T05:42:34;11.97;87.19
78611;SHT30;67932;50.474;4.436;2023-05-14T05:45:00;11.97;87.21
78611;SHT30;67932;50.474;4.436;2023-05-14T05:47:26;11.92;87.47
78611;SHT30;67932;50.474;4.436;2023-05-14T05:49:52;11.94;87.85
78611;SHT30;67932;50.474;4.436;2023-05-14T05:52:19;12.02;87.77
78611;SHT30;67932;50.474;4.436;2023-05-14T05:54:45;11.91;87.64
78611;SHT30;67932;50.474;4.436;2023-05-14T05:57:11;11.92;87.78
78611;SHT30;67932;50.474;4.436;2023-05-14T05:59:39;11.91;88.20
78611;SHT30;67932;50.474;4.436;2023-05-14T06:02:06;11.97;87.76
78611;SHT30;67932;50.474;4.436;2023-05-14T06:04:32;11.99;87.96
78611;SHT30;67932;50.474;4.436;2023-05-14T06:06:58;11.77;88.34
78611;SHT30;67932;50.474;4.436;2023-05-14T06:09:24;11.91;87.64
78611;SHT30;67932;50.474;4.436;2023-05-14T06:11:50;12.01;87.57
78611;SHT30;67932;50.474;4.436;2023-05-14T06:14:17;11.91;87.90
78611;SHT30;67932;50.474;4.436;2023-05-14T06:16:43;12.06;87.29
78611;SHT30;67932;50.474;4.436;2023-05-14T06:19:09;11.94;88.13
78611;SHT30;67932;50.474;4.436;2023-05-14T06:21:36;12.12;87.41
78611;SHT30;67932;50.474;4.436;2023-05-14T06:24:02;12.06;87.54
78611;SHT30;67932;50.474;4.436;2023-05-14T06:26:28;12.01;87.78
78611;SHT30;67932;50.474;4.436;2023-05-14T06:28:55;11.78;88.60
78611;SHT30;67932;50.474;4.436;2023-05-14T06:31:21;11.99;87.86
78611;SHT30;67932;50.474;4.436;2023-05-14T06:33:47;12.01;87.93
78611;SHT30;67932;50.474;4.436;2023-05-14T06:36:14;12.09;87.65
78611;SHT30;67932;50.474;4.436;2023-05-14T06:38:40;12.04;87.65
78611;SHT30;67932;50.474;4.436;2023-05-14T06:41:06;11.99;87.95
78611;SHT30;67932;50.474;4.436;2023-05-14T06:43:33;11.82;88.63
78611;SHT30;67932;50.474;4.436;2023-05-14T06:45:59;11.84;88.77
78611;SHT30;67932;50.474;4.436;2023-05-14T06:48:26;11.99;88.17
78611;SHT30;67932;50.474;4.436;2023-05-14T06:50:54;11.84;88.40
78611;SHT30;67932;50.474;4.436;2023-05-14T06:53:20;11.97;88.29
78611;SHT30;67932;50.474;4.436;2023-05-14T06:58:44;11.87;88.26
78611;SHT30;67932;50.474;4.436;2023-05-14T07:01:10;11.85;88.29
78611;SHT30;67932;50.474;4.436;2023-05-14T07:03:36;11.87;88.27
78611;SHT30;67932;50.474;4.436;2023-05-14T07:06:03;11.92;88.16
78611;SHT30;67932;50.474;4.436;2023-05-14T07:08:29;11.95;88.07
78611;SHT30;67932;50.474;4.436;2023-05-14T07:10:55;11.94;88.12
78611;SHT30;67932;50.474;4.436;2023-05-14T07:13:22;12.05;87.43
78611;SHT30;67932;50.474;4.436;2023-05-14T07:15:49;12.17;87.16
78611;SHT30;67932;50.474;4.436;2023-05-14T07:18:16;12.09;87.61
78611;SHT30;67932;50.474;4.436;2023-05-14T07:20:42;11.95;88.35
78611;SHT30;67932;50.474;4.436;2023-05-14T07:23:10;12.02;87.96
78611;SHT30;67932;50.474;4.436;2023-05-14T07:25:36;12.12;87.80
78611;SHT30;67932;50.474;4.436;2023-05-14T07:28:02;11.95;88.38
78611;SHT30;67932;50.474;4.436;2023-05-14T07:30:28;11.82;88.92
78611;SHT30;67932;50.474;4.436;2023-05-14T07:32:55;11.87;89.01
78611;SHT30;67932;50.474;4.436;2023-05-14T07:35:21;11.95;88.46
78611;SHT30;67932;50.474;4.436;2023-05-14T07:37:48;12.04;88.10
78611;SHT30;67932;50.474;4.436;2023-05-14T07:40:14;11.94;87.97
78611;SHT30;67932;50.474;4.436;2023-05-14T07:42:40;11.98;88.07
78611;SHT30;67932;50.474;4.436;2023-05-14T07:45:07;11.81;88.59
78611;SHT30;67932;50.474;4.436;2023-05-14T07:47:34;11.88;88.64
78611;SHT30;67932;50.474;4.436;2023-05-14T07:50:01;11.92;88.42
78611;SHT30;67932;50.474;4.436;2023-05-14T07:52:28;11.84;88.11
78611;SHT30;67932;50.474;4.436;2023-05-14T07:54:55;11.98;87.86
78611;SHT30;67932;50.474;4.436;2023-05-14T07:57:21;12.15;87.27
78611;SHT30;67932;50.474;4.436;2023-05-14T07:59:48;12.21;87.15
78611;SHT30;67932;50.474;4.436;2023-05-14T08:02:14;12.17;87.55
78611;SHT30;67932;50.474;4.436;2023-05-14T08:04:41;12.15;87.56
78611;SHT30;67932;50.474;4.436;2023-05-14T08:07:08;12.18;87.30
78611;SHT30;67932;50.474;4.436;2023-05-14T08:09:37;12.33;86.57
78611;SHT30;67932;50.474;4.436;2023-05-14T08:12:04;12.22;86.67
78611;SHT30;67932;50.474;4.436;2023-05-14T08:14:30;12.24;86.46
78611;SHT30;67932;50.474;4.436;2023-05-14T08:16:56;12.33;86.44
78611;SHT30;67932;50.474;4.436;2023-05-14T08:19:23;12.29;86.15
78611;SHT30;67932;50.474;4.436;2023-05-14T08:21:50;12.28;86.14
78611;SHT30;67932;50.474;4.436;2023-05-14T08:24:16;12.38;85.84
78611;SHT30;67932;50.474;4.436;2023-05-14T08:26:43;12.29;85.98
78611;SHT30;67932;50.474;4.436;2023-05-14T08:29:09;12.59;85.62
78611;SHT30;67932;50.474;4.436;2023-05-14T08:31:35;12.50;85.20
78611;SHT30;67932;50.474;4.436;2023-05-14T08:34:01;12.55;85.87
78611;SHT30;67932;50.474;4.436;2023-05-14T08:36:28;12.69;84.86
78611;SHT30;67932;50.474;4.436;2023-05-14T08:38:54;12.60;85.07
78611;SHT30;67932;50.474;4.436;2023-05-14T08:41:20;12.72;85.11
78611;SHT30;67932;50.474;4.436;2023-05-14T08:44:06;12.67;85.12
78611;SHT30;67932;50.474;4.436;2023-05-14T08:46:36;12.31;86.19
78611;SHT30;67932;50.474;4.436;2023-05-14T08:51:52;12.41;86.42
78611;SHT30;67932;50.474;4.436;2023-05-14T08:54:19;12.46;86.31
78611;SHT30;67932;50.474;4.436;2023-05-14T08:56:51;12.14;87.34
78611;SHT30;67932;50.474;4.436;2023-05-14T08:59:17;12.33;87.20
78611;SHT30;67932;50.474;4.436;2023-05-14T09:01:47;12.56;86.43
78611;SHT30;67932;50.474;4.436;2023-05-14T09:04:20;12.55;86.15
78611;SHT30;67932;50.474;4.436;2023-05-14T09:06:49;12.59;85.72
78611;SHT30;67932;50.474;4.436;2023-05-14T09:09:16;12.66;85.45
78611;SHT30;67932;50.474;4.436;2023-05-14T09:11:45;12.46;85.68
78611;SHT30;67932;50.474;4.436;2023-05-14T09:14:12;12.48;85.72
78611;SHT30;67932;50.474;4.436;2023-05-14T09:16:39;12.53;85.62
78611;SHT30;67932;50.474;4.436;2023-05-14T09:19:08;12.73;85.60
78611;SHT30;67932;50.474;4.436;2023-05-14T09:21:35;12.67;85.19
78611;SHT30;67932;50.474;4.436;2023-05-14T09:24:01;12.75;85.02
78611;SHT30;67932;50.474;4.436;2023-05-14T09:26:31;12.67;85.17
78611;SHT30;67932;50.474;4.436;2023-05-14T09:28:59;12.73;86.63
78611;SHT30;67932;50.474;4.436;2023-05-14T09:31:32;12.93;85.07
78611;SHT30;67932;50.474;4.436;2023-05-14T09:33:59;12.99;84.60
78611;SHT30;67932;50.474;4.436;2023-05-14T09:36:26;13.18;82.74
78611;SHT30;67932;50.474;4.436;2023-05-14T09:39:03;13.24;82.90
78611;SHT30;67932;50.474;4.436;2023-05-14T09:41:29;13.36;82.49
78611;SHT30;67932;50.474;4.436;2023-05-14T09:43:56;13.51;82.11
78611;SHT30;67932;50.474;4.436;2023-05-14T09:46:22;13.57;81.94
78611;SHT30;67932;50.474;4.436;2023-05-14T09:48:49;13.67;81.43
78611;SHT30;67932;50.474;4.436;2023-05-14T09:51:16;13.89;80.95
78611;SHT30;67932;50.474;4.436;2023-05-14T09:53:43;13.95;80.18
78611;SHT30;67932;50.474;4.436;2023-05-14T09:56:10;14.13;79.31
78611;SHT30;67932;50.474;4.436;2023-05-14T09:58:36;14.04;79.39
78611;SHT30;67932;50.474;4.436;2023-05-14T10:01:02;14.21;79.40
78611;SHT30;67932;50.474;4.436;2023-05-14T10:03:30;14.60;78.03
78611;SHT30;67932;50.474;4.436;2023-05-14T10:06:02;14.55;77.56
78611;SHT30;67932;50.474;4.436;2023-05-14T10:08:35;14.67;77.05
78611;SHT30;67932;50.474;4.436;2023-05-14T10:11:05;14.75;76.69
78611;SHT30;67932;50.474;4.436;2023-05-14T10:13:38;14.94;76.54
78611;SHT30;67932;50.474;4.436;2023-05-14T10:16:15;14.33;77.97
78611;SHT30;67932;50.474;4.436;2023-05-14T10:18:47;14.87;76.67
78611;SHT30;67932;50.474;4.436;2023-05-14T10:21:19;14.90;76.34
78611;SHT30;67932;50.474;4.436;2023-05-14T10:23:48;14.70;76.99
78611;SHT30;67932;50.474;4.436;2023-05-14T10:26:15;14.83;76.83
78611;SHT30;67932;50.474;4.436;2023-05-14T10:28:42;14.79;76.52
78611;SHT30;67932;50.474;4.436;2023-05-14T10:31:09;14.80;76.73
78611;SHT30;67932;50.474;4.436;2023-05-14T10:33:49;14.93;75.70
78611;SHT30;67932;50.474;4.436;2023-05-14T10:36:20;15.06;75.24
78611;SHT30;67932;50.474;4.436;2023-05-14T10:38:54;14.50;75.91
78611;SHT30;67932;50.474;4.436;2023-05-14T10:41:22;14.83;75.41
78611;SHT30;67932;50.474;4.436;2023-05-14T10:43:48;14.87;75.49
78611;SHT30;67932;50.474;4.436;2023-05-14T10:46:15;15.52;73.90
78611;SHT30;67932;50.474;4.436;2023-05-14T10:48:42;15.82;73.44
78611;SHT30;67932;50.474;4.436;2023-05-14T10:51:20;15.91;72.88
78611;SHT30;67932;50.474;4.436;2023-05-14T10:53:48;15.84;72.35
78611;SHT30;67932;50.474;4.436;2023-05-14T10:56:15;15.42;72.95
78611;SHT30;67932;50.474;4.436;2023-05-14T10:58:43;15.68;72.69
78611;SHT30;67932;50.474;4.436;2023-05-14T11:01:13;15.68;72.79
78611;SHT30;67932;50.474;4.436;2023-05-14T11:03:44;15.98;71.72
78611;SHT30;67932;50.474;4.436;2023-05-14T11:06:13;16.36;71.06
78611;SHT30;67932;50.474;4.436;2023-05-14T11:08:40;16.91;69.34
78611;SHT30;67932;50.474;4.436;2023-05-14T11:11:07;16.10;70.48
78611;SHT30;67932;50.474;4.436;2023-05-14T11:13:33;16.71;70.03
78611;SHT30;67932;50.474;4.436;2023-05-14T11:16:01;17.42;67.96
78611;SHT30;67932;50.474;4.436;2023-05-14T11:18:29;17.69;66.99
78611;SHT30;67932;50.474;4.436;2023-05-14T11:20:59;17.99;65.96
78611;SHT30;67932;50.474;4.436;2023-05-14T11:23:26;17.49;67.56
78611;SHT30;67932;50.474;4.436;2023-05-14T11:25:54;17.46;67.91
78611;SHT30;67932;50.474;4.436;2023-05-14T11:28:21;17.75;66.48
78611;SHT30;67932;50.474;4.436;2023-05-14T11:30:50;18.25;65.11
78611;SHT30;67932;50.474;4.436;2023-05-14T11:33:17;18.28;64.28
78611;SHT30;67932;50.474;4.436;2023-05-14T11:35:44;17.83;66.08
78611;SHT30;67932;50.474;4.436;2023-05-14T11:38:15;17.00;68.38
78611;SHT30;67932;50.474;4.436;2023-05-14T11:40:56;17.75;67.65
78611;SHT30;67932;50.474;4.436;2023-05-14T11:43:23;19.27;62.96
78611;SHT30;67932;50.474;4.436;2023-05-14T11:45:50;19.58;61.37
78611;SHT30;67932;50.474;4.436;2023-05-14T11:48:17;20.27;59.29
78611;SHT30;67932;50.474;4.436;2023-05-14T11:50:49;19.66;60.90
78611;SHT30;67932;50.474;4.436;2023-05-14T11:53:23;18.25;65.42
78611;SHT30;67932;50.474;4.436;2023-05-14T11:55:49;18.30;65.64
78611;SHT30;67932;50.474;4.436;2023-05-14T11:58:17;18.87;62.36
78611;SHT30;67932;50.474;4.436;2023-05-14T12:00:45;18.65;63.62
78611;SHT30;67932;50.474;4.436;2023-05-14T12:03:12;18.85;63.09
78611;SHT30;67932;50.474;4.436;2023-05-14T12:05:39;17.82;66.29
78611;SHT30;67932;50.474;4.436;2023-05-14T12:08:28;17.82;66.80
78611;SHT30;67932;50.474;4.436;2023-05-14T12:10:54;18.20;67.33
78611;SHT30;67932;50.474;4.436;2023-05-14T12:13:28;17.93;67.42
78611;SHT30;67932;50.474;4.436;2023-05-14T12:15:56;18.25;66.05
78611;SHT30;67932;50.474;4.436;2023-05-14T12:18:28;19.49;61.30
78611;SHT30;67932;50.474;4.436;2023-05-14T12:20:54;19.73;61.08
78611;SHT30;67932;50.474;4.436;2023-05-14T12:23:30;19.12;62.21
78611;SHT30;67932;50.474;4.436;2023-05-14T12:26:07;19.73;60.64
78611;SHT30;67932;50.474;4.436;2023-05-14T12:28:37;21.41;56.03
78611;SHT30;67932;50.474;4.436;2023-05-14T12:31:03;19.79;58.43
78611;SHT30;67932;50.474;4.436;2023-05-14T12:33:30;20.51;58.19
78611;SHT30;67932;50.474;4.436;2023-05-14T12:35:56;22.05;54.51
78611;SHT30;67932;50.474;4.436;2023-05-14T12:38:26;22.07;53.20
78611;SHT30;67932;50.474;4.436;2023-05-14T12:40:53;22.10;53.28
78611;SHT30;67932;50.474;4.436;2023-05-14T12:43:19;21.08;56.06
78611;SHT30;67932;50.474;4.436;2023-05-14T12:45:45;21.69;54.30
78611;SHT30;67932;50.474;4.436;2023-05-14T12:48:11;21.29;55.36
78611;SHT30;67932;50.474;4.436;2023-05-14T12:50:38;22.90;51.80
78611;SHT30;67932;50.474;4.436;2023-05-14T12:53:04;22.48;51.76
78611;SHT30;67932;50.474;4.436;2023-05-14T12:55:31;22.05;54.07
78611;SHT30;67932;50.474;4.436;2023-05-14T12:57:59;22.43;53.50
78611;SHT30;67932;50.474;4.436;2023-05-14T13:00:25;22.23;54.12
78611;SHT30;67932;50.474;4.436;2023-05-14T13:02:52;22.71;52.98
78611;SHT30;67932;50.474;4.436;2023-05-14T13:05:18;21.27;56.95
78611;SHT30;67932;50.474;4.436;2023-05-14T13:07:44;21.79;55.52
78611;SHT30;67932;50.474;4.436;2023-05-14T13:10:10;21.52;55.47
78611;SHT30;67932;50.474;4.436;2023-05-14T13:12:37;20.95;57.65
78611;SHT30;67932;50.474;4.436;2023-05-14T13:15:04;22.40;54.01
78611;SHT30;67932;50.474;4.436;2023-05-14T13:17:30;23.26;50.87
78611;SHT30;67932;50.474;4.436;2023-05-14T13:19:56;23.70;48.87
78611;SHT30;67932;50.474;4.436;2023-05-14T13:22:23;24.24;48.72
78611;SHT30;67932;50.474;4.436;2023-05-14T13:24:49;24.14;48.62
78611;SHT30;67932;50.474;4.436;2023-05-14T13:27:15;22.53;51.22
78611;SHT30;67932;50.474;4.436;2023-05-14T13:29:42;24.03;49.26
78611;SHT30;67932;50.474;4.436;2023-05-14T13:32:08;23.46;50.27
78611;SHT30;67932;50.474;4.436;2023-05-14T13:34:34;22.86;52.57
78611;SHT30;67932;50.474;4.436;2023-05-14T13:37:01;23.05;52.74
78611;SHT30;67932;50.474;4.436;2023-05-14T13:39:27;23.39;51.30
78611;SHT30;67932;50.474;4.436;2023-05-14T13:41:54;23.07;51.65
78611;SHT30;67932;50.474;4.436;2023-05-14T13:44:21;24.21;51.35
78611;SHT30;67932;50.474;4.436;2023-05-14T13:46:48;24.96;48.02
78611;SHT30;67932;50.474;4.436;2023-05-14T13:49:14;23.87;48.43
78611;SHT30;67932;50.474;4.436;2023-05-14T13:51:40;24.98;47.96
78611;SHT30;67932;50.474;4.436;2023-05-14T13:54:07;24.21;47.29
78611;SHT30;67932;50.474;4.436;2023-05-14T13:56:33;24.80;46.95
78611;SHT30;67932;50.474;4.436;2023-05-14T13:58:59;24.10;48.29
78611;SHT30;67932;50.474;4.436;2023-05-14T14:01:26;23.90;49.78
78611;SHT30;67932;50.474;4.436;2023-05-14T14:04:20;24.14;48.05
78611;SHT30;67932;50.474;4.436;2023-05-14T14:06:47;24.26;48.21
78611;SHT30;67932;50.474;4.436;2023-05-14T14:09:13;24.05;48.14
78611;SHT30;67932;50.474;4.436;2023-05-14T14:11:40;23.55;48.68
78611;SHT30;67932;50.474;4.436;2023-05-14T14:14:06;22.56;50.76
78611;SHT30;67932;50.474;4.436;2023-05-14T14:16:32;23.45;48.53
78611;SHT30;67932;50.474;4.436;2023-05-14T14:18:59;24.02;48.27
78611;SHT30;67932;50.474;4.436;2023-05-14T14:21:29;24.51;46.39
78611;SHT30;67932;50.474;4.436;2023-05-14T14:23:56;24.05;47.65
78611;SHT30;67932;50.474;4.436;2023-05-14T14:26:22;24.13;46.82
78611;SHT30;67932;50.474;4.436;2023-05-14T14:28:48;22.63;51.39
78611;SHT30;67932;50.474;4.436;2023-05-14T14:31:16;23.70;48.26
78611;SHT30;67932;50.474;4.436;2023-05-14T14:33:42;23.49;49.03
78611;SHT30;67932;50.474;4.436;2023-05-14T14:36:08;23.51;49.72
78611;SHT30;67932;50.474;4.436;2023-05-14T14:38:35;23.70;48.42
78611;SHT30;67932;50.474;4.436;2023-05-14T14:41:01;24.36;47.75
78611;SHT30;67932;50.474;4.436;2023-05-14T14:43:35;24.49;47.53
78611;SHT30;67932;50.474;4.436;2023-05-14T14:46:01;23.96;48.11
78611;SHT30;67932;50.474;4.436;2023-05-14T14:48:31;24.82;45.16
78611;SHT30;67932;50.474;4.436;2023-05-14T14:50:59;24.78;45.53
78611;SHT30;67932;50.474;4.436;2023-05-14T14:53:31;23.32;48.41
78611;SHT30;67932;50.474;4.436;2023-05-14T14:55:58;23.58;49.04
78611;SHT30;67932;50.474;4.436;2023-05-14T14:58:25;24.27;44.38
78611;SHT30;67932;50.474;4.436;2023-05-14T15:00:56;24.09;46.65
78611;SHT30;67932;50.474;4.436;2023-05-14T15:03:23;23.55;47.34
78611;SHT30;67932;50.474;4.436;2023-05-14T15:05:49;22.40;49.13
78611;SHT30;67932;50.474;4.436;2023-05-14T15:08:17;23.01;48.32
78611;SHT30;67932;50.474;4.436;2023-05-14T15:10:44;23.83;47.54
78611;SHT30;67932;50.474;4.436;2023-05-14T15:13:11;23.77;46.90
78611;SHT30;67932;50.474;4.436;2023-05-14T15:15:37;23.46;47.51
78611;SHT30;67932;50.474;4.436;2023-05-14T15:18:04;23.52;48.03
78611;SHT30;67932;50.474;4.436;2023-05-14T15:20:30;23.33;49.54
78611;SHT30;67932;50.474;4.436;2023-05-14T15:22:57;23.10;50.04
78611;SHT30;67932;50.474;4.436;2023-05-14T15:25:24;22.98;50.92
78611;SHT30;67932;50.474;4.436;2023-05-14T15:27:51;22.81;50.52
78611;SHT30;67932;50.474;4.436;2023-05-14T15:30:17;22.16;51.92
78611;SHT30;67932;50.474;4.436;2023-05-14T15:32:44;22.23;52.02
78611;SHT30;67932;50.474;4.436;2023-05-14T15:35:11;22.35;52.93
78611;SHT30;67932;50.474;4.436;2023-05-14T15:37:41;22.32;51.53
78611;SHT30;67932;50.474;4.436;2023-05-14T15:40:08;22.12;52.21
78611;SHT30;67932;50.474;4.436;2023-05-14T15:42:40;22.63;50.25